sensor_id;sensor_type;location;lat;lon;timestamp;temperature;humidity
25951;DHT22;13748;52.240;6.002;2023-07-16T00:02:02;18.90;99.90
25951;DHT22;13748;52.240;6.002;2023-07-16T00:04:33;18.90;99.90
25951;DHT22;13748;52.240;6.002;2023-07-16T00:07:00;18.90;99.90
25951;DHT22;13748;52.240;6.002;2023-07-16T00:09:28;18.90;99.90
25951;DHT22;13748;52.240;6.002;2023-07-16T00:11:56;18.90;99.90
25951;DHT22;13748;52.240;6.002;2023-07-16T00:14:23;18.90;99.90
25951;DHT22;13748;52.240;6.002;2023-07-16T00:16:50;18.90;99.90
25951;DHT22;13748;52.240;6.002;2023-07-16T00:19:17;18.90;99.90
25951;DHT22;13748;52.240;6.002;2023-07-16T00:21:44;18.90;99.90
25951;DHT22;13748;52.240;6.002;2023-07-16T00:24:10;18.90;99.90
25951;DHT22;13748;52.240;6.002;2023-07-16T00:26:37;18.80;99.90
25951;DHT22;13748;52.240;6.002;2023-07-16T00:29:04;18.80;99.90
25951;DHT22;13748;52.240;6.002;2023-07-16T00:31:31;18.80;99.90
25951;DHT22;13748;52.240;6.002;2023-07-16T00:33:57;18.80;99.90
25951;DHT22;13748;52.240;6.002;2023-07-16T00:36:24;18.80;99.90
25951;DHT22;13748;52.240;6.002;2023-07-16T00:38:51;18.80;99.90
25951;DHT22;13748;52.240;6.002;2023-07-16T00:41:18;18.80;99.90
25951;DHT22;13748;52.240;6.002;2023-07-16T00:43:45;18.80;99.90
25951;DHT22;13748;52.240;6.002;2023-07-16T00:46:12;18.90;99.90
25951;DHT22;13748;52.240;6.002;2023-07-16T00:48:40;18.90;99.90
25951;DHT22;13748;52.240;6.002;2023-07-16T00:51:08;18.90;99.90
25951;DHT22;13748;52.240;6.002;2023-07-16T00:53:35;18.90;99.90
25951;DHT22;13748;52.240;6.002;2023-07-16T00:56:02;18.90;99.90
25951;DHT22;13748;52.240;6.002;2023-07-16T00:58:29;18.90;99.90
25951;DHT22;13748;52.240;6.002;2023-07-16T01:00:56;18.90;99.90
25951;DHT22;13748;52.240;6.002;2023-07-16T01:03:23;18.80;99.90
25951;DHT22;13748;52.240;6.002;2023-07-16T01:06:13;18.80;99.90
25951;DHT22;13748;52.240;6.002;2023-07-16T01:08:55;18.70;99.90
25951;DHT22;13748;52.240;6.002;2023-07-16T01:11:23;18.70;99.90
25951;DHT22;13748;52.240;6.002;2023-07-16T01:13:52;18.70;99.90
25951;DHT22;13748;52.240;6.002;2023-07-16T01:16:23;18.70;99.90
25951;DHT22;13748;52.240;6.002;2023-07-16T01:18:51;18.70;99.90
25951;DHT22;13748;52.240;6.002;2023-07-16T01:21:20;18.70;99.90
25951;DHT22;13748;52.240;6.002;2023-07-16T01:23:59;18.60;99.90
25951;DHT22;13748;52.240;6.002;2023-07-16T01:26:44;18.60;99.90
25951;DHT22;13748;52.240;6.002;2023-07-16T01:29:33;18.60;99.90
25951;DHT22;13748;52.240;6.002;2023-07-16T01:32:03;18.60;99.90
25951;DHT22;13748;52.240;6.002;2023-07-16T01:34:33;18.60;99.90
25951;DHT22;13748;52.240;6.002;2023-07-16T01:37:01;18.50;99.90
25951;DHT22;13748;52.240;6.002;2023-07-16T01:39:30;18.50;99.90
25951;DHT22;13748;52.240;6.002;2023-07-16T01:41:57;18.40;99.90
25951;DHT22;13748;52.240;6.002;2023-07-16T01:44:24;18.30;99.90
25951;DHT22;13748;52.240;6.002;2023-07-16T01:49:32;18.30;99.90
25951;DHT22;13748;52.240;6.002;2023-07-16T01:52:03;18.30;99.90
25951;DHT22;13748;52.240;6.002;2023-07-16T01:54:30;18.30;99.90
25951;DHT22;13748;52.240;6.002;2023-07-16T01:56:57;18.30;99.90
25951;DHT22;13748;52.240;6.002;2023-07-16T01:59:24;18.20;99.90
25951;DHT22;13748;52.240;6.002;2023-07-16T02:01:51;18.30;99.90
25951;DHT22;13748;52.240;6.002;2023-07-16T02:04:18;18.20;99.90
25951;DHT22;13748;52.240;6.002;2023-07-16T02:06:45;18.20;99.90
25951;DHT22;13748;52.240;6.002;2023-07-16T02:09:12;18.20;99.90
25951;DHT22;13748;52.240;6.002;2023-07-16T02:11:39;18.10;99.90
25951;DHT22;13748;52.240;6.002;2023-07-16T02:14:05;18.20;99.90
25951;DHT22;13748;52.240;6.002;2023-07-16T02:16:32;18.10;99.90
25951;DHT22;13748;52.240;6.002;2023-07-16T02:18:59;18.10;99.90
25951;DHT22;13748;52.240;6.002;2023-07-16T02:21:26;18.10;99.90
25951;DHT22;13748;52.240;6.002;2023-07-16T02:23:52;18.10;99.90
25951;DHT22;13748;52.240;6.002;2023-07-16T02:26:19;18.00;99.90
25951;DHT22;13748;52.240;6.002;2023-07-16T02:28:46;18.00;99.90
25951;DHT22;13748;52.240;6.002;2023-07-16T02:31:13;18.00;99.90
25951;DHT22;13748;52.240;6.002;2023-07-16T02:33:40;17.90;99.90
25951;DHT22;13748;52.240;6.002;2023-07-16T02:36:07;17.90;99.90
25951;DHT22;13748;52.240;6.002;2023-07-16T02:38:33;18.00;99.90
25951;DHT22;13748;52.240;6.002;2023-07-16T02:41:00;17.90;99.90
25951;DHT22;13748;52.240;6.002;2023-07-16T02:43:27;17.90;99.90
25951;DHT22;13748;52.240;6.002;2023-07-16T02:45:54;17.90;99.90
25951;DHT22;13748;52.240;6.002;2023-07-16T02:48:21;17.90;99.90
25951;DHT22;13748;52.240;6.002;2023-07-16T02:50:48;17.80;99.90
25951;DHT22;13748;52.240;6.002;2023-07-16T02:53:15;17.80;99.90
25951;DHT22;13748;52.240;6.002;2023-07-16T02:55:42;17.80;99.90
25951;DHT22;13748;52.240;6.002;2023-07-16T02:58:08;17.70;99.90
25951;DHT22;13748;52.240;6.002;2023-07-16T03:00:35;17.70;99.90
25951;DHT22;13748;52.240;6.002;2023-07-16T03:03:02;17.70;99.90
25951;DHT22;13748;52.240;6.002;2023-07-16T03:05:29;17.70;99.90
25951;DHT22;13748;52.240;6.002;2023-07-16T03:07:56;17.70;99.90
25951;DHT22;13748;52.240;6.002;2023-07-16T03:10:24;17.60;99.90
25951;DHT22;13748;52.240;6.002;2023-07-16T03:12:53;17.60;99.90
25951;DHT22;13748;52.240;6.002;2023-07-16T03:15:20;17.60;99.90
25951;DHT22;13748;52.240;6.002;2023-07-16T03:17:47;17.60;99.90
25951;DHT22;13748;52.240;6.002;2023-07-16T03:20:14;17.60;99.90
25951;DHT22;13748;52.240;6.002;2023-07-16T03:22:41;17.50;99.90
25951;DHT22;13748;52.240;6.002;2023-07-16T03:25:08;17.50;99.90
25951;DHT22;13748;52.240;6.002;2023-07-16T03:27:35;17.50;99.90
25951;DHT22;13748;52.240;6.002;2023-07-16T03:30:02;17.40;99.90
25951;DHT22;13748;52.240;6.002;2023-07-16T03:32:29;17.50;99.90
25951;DHT22;13748;52.240;6.002;2023-07-16T03:35:11;17.50;99.90
25951;DHT22;13748;52.240;6.002;2023-07-16T03:37:38;17.40;99.90
25951;DHT22;13748;52.240;6.002;2023-07-16T03:40:13;17.40;99.90
25951;DHT22;13748;52.240;6.002;2023-07-16T03:42:41;17.40;99.90
25951;DHT22;13748;52.240;6.002;2023-07-16T03:45:10;17.40;99.90
25951;DHT22;13748;52.240;6.002;2023-07-16T03:47:37;17.40;99.90
25951;DHT22;13748;52.240;6.002;2023-07-16T03:50:04;17.40;99.90
25951;DHT22;13748;52.240;6.002;2023-07-16T03:52:31;17.40;99.90
25951;DHT22;13748;52.240;6.002;2023-07-16T03:54:58;17.40;99.90
25951;DHT22;13748;52.240;6.002;2023-07-16T03:57:27;17.40;99.90
25951;DHT22;13748;52.240;6.002;2023-07-16T03:59:55;17.40;99.90
25951;DHT22;13748;52.240;6.002;2023-07-16T04:02:23;17.40;99.90
25951;DHT22;13748;52.240;6.002;2023-07-16T04:04:49;17.40;99.90
25951;DHT22;13748;52.240;6.002;2023-07-16T04:07:17;17.40;99.90
25951;DHT22;13748;52.240;6.002;2023-07-16T04:09:44;17.40;99.90
25951;DHT22;13748;52.240;6.002;2023-07-16T04:12:11;17.30;99.90
25951;DHT22;13748;52.240;6.002;2023-07-16T04:14:38;17.40;99.90
25951;DHT22;13748;52.240;6.002;2023-07-16T04:17:05;17.40;99.90
25951;DHT22;13748;52.240;6.002;2023-07-16T04:19:32;17.30;99.90
25951;DHT22;13748;52.240;6.002;2023-07-16T04:21:58;17.40;99.90
25951;DHT22;13748;52.240;6.002;2023-07-16T04:24:25;17.50;99.90
25951;DHT22;13748;52.240;6.002;2023-07-16T04:26:53;17.50;99.90
25951;DHT22;13748;52.240;6.002;2023-07-16T04:29:21;17.50;99.90
25951;DHT22;13748;52.240;6.002;2023-07-16T04:31:48;17.50;99.90
25951;DHT22;13748;52.240;6.002;2023-07-16T04:34:15;17.50;99.90
25951;DHT22;13748;52.240;6.002;2023-07-16T04:36:42;17.60;99.90
25951;DHT22;13748;52.240;6.002;2023-07-16T04:39:09;17.60;99.90
25951;DHT22;13748;52.240;6.002;2023-07-16T04:41:36;17.60;99.90
25951;DHT22;13748;52.240;6.002;2023-07-16T04:44:04;17.60;99.90
25951;DHT22;13748;52.240;6.002;2023-07-16T04:46:31;17.60;99.90
25951;DHT22;13748;52.240;6.002;2023-07-16T04:48:57;17.70;99.90
25951;DHT22;13748;52.240;6.002;2023-07-16T04:51:24;17.70;99.90
25951;DHT22;13748;52.240;6.002;2023-07-16T04:53:51;17.70;99.90
25951;DHT22;13748;52.240;6.002;2023-07-16T04:56:18;17.70;99.90
25951;DHT22;13748;52.240;6.002;2023-07-16T04:58:45;17.70;99.90
25951;DHT22;13748;52.240;6.002;2023-07-16T05:01:12;17.80;99.90
25951;DHT22;13748;52.240;6.002;2023-07-16T05:03:39;17.80;99.90
25951;DHT22;13748;52.240;6.002;2023-07-16T05:06:06;17.80;99.90
25951;DHT22;13748;52.240;6.002;2023-07-16T05:08:33;17.80;99.90
25951;DHT22;13748;52.240;6.002;2023-07-16T05:11:01;17.80;99.90
25951;DHT22;13748;52.240;6.002;2023-07-16T05:13:28;17.80;99.90
25951;DHT22;13748;52.240;6.002;2023-07-16T05:15:55;17.90;99.90
25951;DHT22;13748;52.240;6.002;2023-07-16T05:18:22;17.90;99.90
25951;DHT22;13748;52.240;6.002;2023-07-16T05:20:49;17.90;99.90
25951;DHT22;13748;52.240;6.002;2023-07-16T05:23:16;18.00;99.90
25951;DHT22;13748;52.240;6.002;2023-07-16T05:25:47;18.10;99.90
25951;DHT22;13748;52.240;6.002;2023-07-16T05:28:15;18.00;99.90
25951;DHT22;13748;52.240;6.002;2023-07-16T05:30:42;18.10;99.90
25951;DHT22;13748;52.240;6.002;2023-07-16T05:33:12;18.10;99.90
25951;DHT22;13748;52.240;6.002;2023-07-16T05:35:39;18.10;99.90
25951;DHT22;13748;52.240;6.002;2023-07-16T05:38:06;18.20;99.90
25951;DHT22;13748;52.240;6.002;2023-07-16T05:40:33;18.50;99.90
25951;DHT22;13748;52.240;6.002;2023-07-16T05:43:00;19.10;99.90
25951;DHT22;13748;52.240;6.002;2023-07-16T05:45:27;19.90;99.90
25951;DHT22;13748;52.240;6.002;2023-07-16T05:47:54;20.80;99.90
25951;DHT22;13748;52.240;6.002;2023-07-16T05:52:48;22.30;99.90
25951;DHT22;13748;52.240;6.002;2023-07-16T05:55:15;22.90;99.90
25951;DHT22;13748;52.240;6.002;2023-07-16T05:57:42;23.50;99.90
25951;DHT22;13748;52.240;6.002;2023-07-16T06:02:37;24.50;99.90
25951;DHT22;13748;52.240;6.002;2023-07-16T06:05:04;25.00;99.90
25951;DHT22;13748;52.240;6.002;2023-07-16T06:07:31;25.30;99.90
25951;DHT22;13748;52.240;6.002;2023-07-16T06:09:59;25.50;99.90
25951;DHT22;13748;52.240;6.002;2023-07-16T06:12:26;25.80;99.90
25951;DHT22;13748;52.240;6.002;2023-07-16T06:14:53;25.80;99.90
25951;DHT22;13748;52.240;6.002;2023-07-16T06:17:20;25.90;99.90
25951;DHT22;13748;52.240;6.002;2023-07-16T06:19:47;25.70;99.90
25951;DHT22;13748;52.240;6.002;2023-07-16T06:22:17;25.50;99.90
25951;DHT22;13748;52.240;6.002;2023-07-16T06:24:43;25.60;99.90
25951;DHT22;13748;52.240;6.002;2023-07-16T06:27:10;25.70;99.90
25951;DHT22;13748;52.240;6.002;2023-07-16T06:29:37;26.10;99.90
25951;DHT22;13748;52.240;6.002;2023-07-16T06:32:04;26.20;99.90
25951;DHT22;13748;52.240;6.002;2023-07-16T06:34:33;26.30;99.90
25951;DHT22;13748;52.240;6.002;2023-07-16T06:37:00;26.00;99.90
25951;DHT22;13748;52.240;6.002;2023-07-16T06:39:26;25.80;99.90
25951;DHT22;13748;52.240;6.002;2023-07-16T06:41:53;25.60;99.90
25951;DHT22;13748;52.240;6.002;2023-07-16T06:44:22;25.60;99.90
25951;DHT22;13748;52.240;6.002;2023-07-16T06:46:49;25.20;99.90
25951;DHT22;13748;52.240;6.002;2023-07-16T06:49:16;25.00;99.90
25951;DHT22;13748;52.240;6.002;2023-07-16T06:51:42;25.50;99.90
25951;DHT22;13748;52.240;6.002;2023-07-16T06:54:09;25.60;99.90
25951;DHT22;13748;52.240;6.002;2023-07-16T06:56:36;25.90;99.90
25951;DHT22;13748;52.240;6.002;2023-07-16T06:59:03;25.80;99.90
25951;DHT22;13748;52.240;6.002;2023-07-16T07:01:30;26.10;99.90
25951;DHT22;13748;52.240;6.002;2023-07-16T07:03:57;26.00;99.90
25951;DHT22;13748;52.240;6.002;2023-07-16T07:06:24;25.90;99.90
25951;DHT22;13748;52.240;6.002;2023-07-16T07:08:51;26.00;99.90
25951;DHT22;13748;52.240;6.002;2023-07-16T07:11:18;25.70;99.90
25951;DHT22;13748;52.240;6.002;2023-07-16T07:13:45;25.60;99.90
25951;DHT22;13748;52.240;6.002;2023-07-16T07:16:12;25.70;99.90
25951;DHT22;13748;52.240;6.002;2023-07-16T07:18:40;26.10;99.90
25951;DHT22;13748;52.240;6.002;2023-07-16T07:21:07;26.20;99.90
25951;DHT22;13748;52.240;6.002;2023-07-16T07:23:34;26.50;99.90
25951;DHT22;13748;52.240;6.002;2023-07-16T07:26:00;26.40;99.90
25951;DHT22;13748;52.240;6.002;2023-07-16T07:28:27;26.60;99.90
25951;DHT22;13748;52.240;6.002;2023-07-16T07:30:55;26.20;99.90
25951;DHT22;13748;52.240;6.002;2023-07-16T07:33:22;25.90;99.90
25951;DHT22;13748;52.240;6.002;2023-07-16T07:35:49;26.10;99.90
25951;DHT22;13748;52.240;6.002;2023-07-16T07:38:19;26.40;99.90
25951;DHT22;13748;52.240;6.002;2023-07-16T07:40:46;26.40;99.90
25951;DHT22;13748;52.240;6.002;2023-07-16T07:43:13;26.00;99.90
25951;DHT22;13748;52.240;6.002;2023-07-16T07:45:39;26.50;99.90
25951;DHT22;13748;52.240;6.002;2023-07-16T07:48:06;26.60;99.90
25951;DHT22;13748;52.240;6.002;2023-07-16T07:50:33;27.00;99.90
25951;DHT22;13748;52.240;6.002;2023-07-16T07:53:00;27.10;99.90
25951;DHT22;13748;52.240;6.002;2023-07-16T07:55:27;27.20;99.90
25951;DHT22;13748;52.240;6.002;2023-07-16T07:57:54;26.90;99.90
25951;DHT22;13748;52.240;6.002;2023-07-16T08:00:20;26.60;99.90
25951;DHT22;13748;52.240;6.002;2023-07-16T08:02:48;25.90;99.90
25951;DHT22;13748;52.240;6.002;2023-07-16T08:05:15;25.40;99.90
25951;DHT22;13748;52.240;6.002;2023-07-16T08:07:42;25.10;99.90
25951;DHT22;13748;52.240;6.002;2023-07-16T08:10:09;24.70;99.90
25951;DHT22;13748;52.240;6.002;2023-07-16T08:12:36;24.30;99.90
25951;DHT22;13748;52.240;6.002;2023-07-16T08:15:03;24.10;99.90
25951;DHT22;13748;52.240;6.002;2023-07-16T08:17:30;23.90;99.90
25951;DHT22;13748;52.240;6.002;2023-07-16T08:19:58;23.80;99.90
25951;DHT22;13748;52.240;6.002;2023-07-16T08:22:24;23.70;99.90
25951;DHT22;13748;52.240;6.002;2023-07-16T08:24:51;23.80;99.90
25951;DHT22;13748;52.240;6.002;2023-07-16T08:27:18;23.00;99.90
25951;DHT22;13748;52.240;6.002;2023-07-16T08:29:46;23.20;99.90
25951;DHT22;13748;52.240;6.002;2023-07-16T08:32:13;23.10;99.90
25951;DHT22;13748;52.240;6.002;2023-07-16T08:34:40;23.20;99.90
25951;DHT22;13748;52.240;6.002;2023-07-16T08:37:06;23.40;99.90
25951;DHT22;13748;52.240;6.002;2023-07-16T08:39:33;23.50;99.90
25951;DHT22;13748;52.240;6.002;2023-07-16T08:42:01;23.30;99.90
25951;DHT22;13748;52.240;6.002;2023-07-16T08:44:29;23.50;99.90
25951;DHT22;13748;52.240;6.002;2023-07-16T08:46:56;23.50;99.90
25951;DHT22;13748;52.240;6.002;2023-07-16T08:49:23;23.40;99.90
25951;DHT22;13748;52.240;6.002;2023-07-16T08:51:52;23.20;99.90
25951;DHT22;13748;52.240;6.002;2023-07-16T08:54:22;23.30;99.90
25951;DHT22;13748;52.240;6.002;2023-07-16T08:56:50;23.40;99.90
25951;DHT22;13748;52.240;6.002;2023-07-16T08:59:18;23.40;99.90
25951;DHT22;13748;52.240;6.002;2023-07-16T09:01:47;23.50;99.90
25951;DHT22;13748;52.240;6.002;2023-07-16T09:06:43;23.20;99.90
25951;DHT22;13748;52.240;6.002;2023-07-16T09:09:28;23.00;99.90
25951;DHT22;13748;52.240;6.002;2023-07-16T09:11:56;23.10;99.90
25951;DHT22;13748;52.240;6.002;2023-07-16T09:14:23;22.90;99.90
25951;DHT22;13748;52.240;6.002;2023-07-16T09:16:51;22.70;99.90
25951;DHT22;13748;52.240;6.002;2023-07-16T09:19:19;22.50;99.90
25951;DHT22;13748;52.240;6.002;2023-07-16T09:21:50;22.30;99.90
25951;DHT22;13748;52.240;6.002;2023-07-16T09:24:18;22.20;99.90
25951;DHT22;13748;52.240;6.002;2023-07-16T09:26:51;22.10;99.90
25951;DHT22;13748;52.240;6.002;2023-07-16T09:29:19;22.10;99.90
25951;DHT22;13748;52.240;6.002;2023-07-16T09:32:00;22.20;99.90
25951;DHT22;13748;52.240;6.002;2023-07-16T09:34:28;22.40;99.90
25951;DHT22;13748;52.240;6.002;2023-07-16T09:36:59;22.20;99.90
25951;DHT22;13748;52.240;6.002;2023-07-16T09:39:27;22.00;99.90
25951;DHT22;13748;52.240;6.002;2023-07-16T09:41:54;21.90;99.90
25951;DHT22;13748;52.240;6.002;2023-07-16T09:44:24;21.70;99.90
25951;DHT22;13748;52.240;6.002;2023-07-16T09:46:51;21.70;99.90
25951;DHT22;13748;52.240;6.002;2023-07-16T09:49:18;21.70;99.90
25951;DHT22;13748;52.240;6.002;2023-07-16T09:51:45;21.90;99.90
25951;DHT22;13748;52.240;6.002;2023-07-16T09:54:15;22.10;99.90
25951;DHT22;13748;52.240;6.002;2023-07-16T09:56:56;22.40;99.90
25951;DHT22;13748;52.240;6.002;2023-07-16T09:59:29;22.60;99.90
25951;DHT22;13748;52.240;6.002;2023-07-16T10:01:57;22.70;99.90
25951;DHT22;13748;52.240;6.002;2023-07-16T10:04:24;22.80;99.90
25951;DHT22;13748;52.240;6.002;2023-07-16T10:06:53;22.80;99.90
25951;DHT22;13748;52.240;6.002;2023-07-16T10:09:33;22.80;99.90
25951;DHT22;13748;52.240;6.002;2023-07-16T10:12:16;22.70;99.90
25951;DHT22;13748;52.240;6.002;2023-07-16T10:14:48;22.70;99.90
25951;DHT22;13748;52.240;6.002;2023-07-16T10:17:17;22.80;99.90
25951;DHT22;13748;52.240;6.002;2023-07-16T10:19:51;23.10;99.90
25951;DHT22;13748;52.240;6.002;2023-07-16T10:24:59;24.10;99.90
25951;DHT22;13748;52.240;6.002;2023-07-16T10:27:30;24.10;99.90
25951;DHT22;13748;52.240;6.002;2023-07-16T10:29:58;23.90;99.90
25951;DHT22;13748;52.240;6.002;2023-07-16T10:32:27;23.90;99.90
25951;DHT22;13748;52.240;6.002;2023-07-16T10:34:55;23.80;99.90
25951;DHT22;13748;52.240;6.002;2023-07-16T10:37:23;23.60;99.90
25951;DHT22;13748;52.240;6.002;2023-07-16T10:39:54;23.60;99.90
25951;DHT22;13748;52.240;6.002;2023-07-16T10:42:23;23.70;99.90
25951;DHT22;13748;52.240;6.002;2023-07-16T10:44:51;23.50;99.90
25951;DHT22;13748;52.240;6.002;2023-07-16T10:49:48;23.20;99.90
25951;DHT22;13748;52.240;6.002;2023-07-16T10:52:15;23.20;99.90
25951;DHT22;13748;52.240;6.002;2023-07-16T10:54:41;23.20;99.90
25951;DHT22;13748;52.240;6.002;2023-07-16T10:57:11;23.20;99.90
25951;DHT22;13748;52.240;6.002;2023-07-16T10:59:42;23.10;99.90
25951;DHT22;13748;52.240;6.002;2023-07-16T11:02:13;23.10;99.90
25951;DHT22;13748;52.240;6.002;2023-07-16T11:04:41;23.10;99.90
25951;DHT22;13748;52.240;6.002;2023-07-16T11:07:09;23.10;99.90
25951;DHT22;13748;52.240;6.002;2023-07-16T11:09:49;23.10;99.90
25951;DHT22;13748;52.240;6.002;2023-07-16T11:12:24;23.20;99.90
25951;DHT22;13748;52.240;6.002;2023-07-16T11:14:53;23.10;99.90
25951;DHT22;13748;52.240;6.002;2023-07-16T11:17:21;22.90;99.90
25951;DHT22;13748;52.240;6.002;2023-07-16T11:19:51;22.60;99.90
25951;DHT22;13748;52.240;6.002;2023-07-16T11:22:18;22.50;99.90
25951;DHT22;13748;52.240;6.002;2023-07-16T11:24:46;22.30;99.90
25951;DHT22;13748;52.240;6.002;2023-07-16T11:27:21;22.20;99.90
25951;DHT22;13748;52.240;6.002;2023-07-16T11:29:52;22.20;99.90
25951;DHT22;13748;52.240;6.002;2023-07-16T11:32:43;22.30;99.90
25951;DHT22;13748;52.240;6.002;2023-07-16T11:35:15;22.30;99.90
25951;DHT22;13748;52.240;6.002;2023-07-16T11:37:42;22.40;99.90
25951;DHT22;13748;52.240;6.002;2023-07-16T11:40:11;22.50;99.90
25951;DHT22;13748;52.240;6.002;2023-07-16T11:42:39;22.60;99.90
25951;DHT22;13748;52.240;6.002;2023-07-16T11:45:16;22.70;99.90
25951;DHT22;13748;52.240;6.002;2023-07-16T11:47:43;22.80;99.90
25951;DHT22;13748;52.240;6.002;2023-07-16T11:50:11;22.90;99.90
25951;DHT22;13748;52.240;6.002;2023-07-16T11:52:38;23.10;99.90
25951;DHT22;13748;52.240;6.002;2023-07-16T11:55:06;23.10;99.90
25951;DHT22;13748;52.240;6.002;2023-07-16T11:57:33;23.10;99.90
25951;DHT22;13748;52.240;6.002;2023-07-16T12:00:00;23.20;99.90
25951;DHT22;13748;52.240;6.002;2023-07-16T12:02:27;23.20;99.90
25951;DHT22;13748;52.240;6.002;2023-07-16T12:04:55;23.40;99.90
25951;DHT22;13748;52.240;6.002;2023-07-16T12:07:38;23.50;99.90
25951;DHT22;13748;52.240;6.002;2023-07-16T12:10:06;23.60;99.90
25951;DHT22;13748;52.240;6.002;2023-07-16T12:12:34;23.80;99.90
25951;DHT22;13748;52.240;6.002;2023-07-16T12:15:06;24.00;99.90
25951;DHT22;13748;52.240;6.002;2023-07-16T12:17:33;24.00;99.90
25951;DHT22;13748;52.240;6.002;2023-07-16T12:20:03;24.10;99.90
25951;DHT22;13748;52.240;6.002;2023-07-16T12:22:31;24.10;99.90
25951;DHT22;13748;52.240;6.002;2023-07-16T12:24:58;24.00;99.90
25951;DHT22;13748;52.240;6.002;2023-07-16T12:27:25;23.60;99.90
25951;DHT22;13748;52.240;6.002;2023-07-16T12:29:52;23.50;99.90
25951;DHT22;13748;52.240;6.002;2023-07-16T12:32:19;23.40;99.90
25951;DHT22;13748;52.240;6.002;2023-07-16T12:34:47;23.50;99.90
25951;DHT22;13748;52.240;6.002;2023-07-16T12:37:14;23.40;99.90
25951;DHT22;13748;52.240;6.002;2023-07-16T12:39:40;23.40;99.90
25951;DHT22;13748;52.240;6.002;2023-07-16T12:42:07;23.10;99.90
25951;DHT22;13748;52.240;6.002;2023-07-16T12:44:34;23.10;99.90
25951;DHT22;13748;52.240;6.002;2023-07-16T12:47:01;23.10;99.90
25951;DHT22;13748;52.240;6.002;2023-07-16T12:49:29;23.20;99.90
25951;DHT22;13748;52.240;6.002;2023-07-16T12:51:55;23.60;99.90
25951;DHT22;13748;52.240;6.002;2023-07-16T12:54:22;23.80;99.90
25951;DHT22;13748;52.240;6.002;2023-07-16T12:56:50;23.90;99.90
25951;DHT22;13748;52.240;6.002;2023-07-16T12:59:16;23.80;99.90
25951;DHT22;13748;52.240;6.002;2023-07-16T13:01:43;23.70;99.90
25951;DHT22;13748;52.240;6.002;2023-07-16T13:04:10;23.80;99.90
25951;DHT22;13748;52.240;6.002;2023-07-16T13:06:40;24.00;99.90
25951;DHT22;13748;52.240;6.002;2023-07-16T13:09:08;24.20;99.90
25951;DHT22;13748;52.240;6.002;2023-07-16T13:11:36;24.40;99.90
25951;DHT22;13748;52.240;6.002;2023-07-16T13:14:03;24.40;99.90
25951;DHT22;13748;52.240;6.002;2023-07-16T13:16:30;24.30;99.90
25951;DHT22;13748;52.240;6.002;2023-07-16T13:18:57;24.30;99.90
25951;DHT22;13748;52.240;6.002;2023-07-16T13:21:24;24.40;99.90
25951;DHT22;13748;52.240;6.002;2023-07-16T13:23:50;24.50;99.90
25951;DHT22;13748;52.240;6.002;2023-07-16T13:26:17;24.50;99.90
25951;DHT22;13748;52.240;6.002;2023-07-16T13:28:44;24.50;99.90
25951;DHT22;13748;52.240;6.002;2023-07-16T13:31:11;24.60;99.90
25951;DHT22;13748;52.240;6.002;2023-07-16T13:33:38;24.70;99.90
25951;DHT22;13748;52.240;6.002;2023-07-16T13:36:05;24.70;99.90
25951;DHT22;13748;52.240;6.002;2023-07-16T13:38:32;24.60;99.90
25951;DHT22;13748;52.240;6.002;2023-07-16T13:40:59;24.50;99.90
25951;DHT22;13748;52.240;6.002;2023-07-16T13:43:25;24.40;99.90
25951;DHT22;13748;52.240;6.002;2023-07-16T13:45:52;24.20;99.90
25951;DHT22;13748;52.240;6.002;2023-07-16T13:48:20;24.20;99.90
25951;DHT22;13748;52.240;6.002;2023-07-16T13:50:47;24.40;99.90
25951;DHT22;13748;52.240;6.002;2023-07-16T13:53:14;24.60;99.90
25951;DHT22;13748;52.240;6.002;2023-07-16T13:55:41;24.70;99.90
25951;DHT22;13748;52.240;6.002;2023-07-16T13:58:10;24.90;99.90
25951;DHT22;13748;52.240;6.002;2023-07-16T14:00:37;25.20;99.90
25951;DHT22;13748;52.240;6.002;2023-07-16T14:03:04;25.20;99.90
25951;DHT22;13748;52.240;6.002;2023-07-16T14:05:31;25.10;99.90
25951;DHT22;13748;52.240;6.002;2023-07-16T14:08:01;25.20;99.90
25951;DHT22;13748;52.240;6.002;2023-07-16T14:10:28;25.20;99.90
25951;DHT22;13748;52.240;6.002;2023-07-16T14:12:55;25.20;99.90
25951;DHT22;13748;52.240;6.002;2023-07-16T14:15:22;25.10;99.90
25951;DHT22;13748;52.240;6.002;2023-07-16T14:17:49;25.10;99.90
25951;DHT22;13748;52.240;6.002;2023-07-16T14:20:16;25.10;99.90
25951;DHT22;13748;52.240;6.002;2023-07-16T14:22:43;25.20;99.90
25951;DHT22;13748;52.240;6.002;2023-07-16T14:25:10;25.30;99.90
25951;DHT22;13748;52.240;6.002;2023-07-16T14:27:37;25.40;99.90
25951;DHT22;13748;52.240;6.002;2023-07-16T14:30:04;25.60;99.90
25951;DHT22;13748;52.240;6.002;2023-07-16T14:32:33;25.50;99.90
25951;DHT22;13748;52.240;6.002;2023-07-16T14:35:01;25.40;99.90
25951;DHT22;13748;52.240;6.002;2023-07-16T14:37:28;25.40;99.90
25951;DHT22;13748;52.240;6.002;2023-07-16T14:39:54;25.40;99.90
25951;DHT22;13748;52.240;6.002;2023-07-16T14:42:21;25.40;99.90
25951;DHT22;13748;52.240;6.002;2023-07-16T14:44:48;25.50;99.90
25951;DHT22;13748;52.240;6.002;2023-07-16T14:47:15;25.60;99.90
25951;DHT22;13748;52.240;6.002;2023-07-16T14:49:43;25.60;99.90
25951;DHT22;13748;52.240;6.002;2023-07-16T14:52:10;25.60;99.90
25951;DHT22;13748;52.240;6.002;2023-07-16T14:54:37;25.60;99.90
25951;DHT22;13748;52.240;6.002;2023-07-16T14:57:04;25.60;99.90
25951;DHT22;13748;52.240;6.002;2023-07-16T14:59:31;25.40;99.90
25951;DHT22;13748;52.240;6.002;2023-07-16T15:01:57;25.20;99.90
25951;DHT22;13748;52.240;6.002;2023-07-16T15:04:24;25.10;99.90
25951;DHT22;13748;52.240;6.002;2023-07-16T15:06:51;24.90;99.90
25951;DHT22;13748;52.240;6.002;2023-07-16T15:09:18;24.60;99.90
25951;DHT22;13748;52.240;6.002;2023-07-16T15:11:45;24.30;99.90
25951;DHT22;13748;52.240;6.002;2023-07-16T15:14:12;24.30;99.90
25951;DHT22;13748;52.240;6.002;2023-07-16T15:16:39;24.50;99.90
25951;DHT22;13748;52.240;6.002;2023-07-16T15:19:06;24.60;99.90
25951;DHT22;13748;52.240;6.002;2023-07-16T15:21:35;24.70;99.90
25951;DHT22;13748;52.240;6.002;2023-07-16T15:24:05;24.90;99.90
25951;DHT22;13748;52.240;6.002;2023-07-16T15:26:32;24.80;99.90
25951;DHT22;13748;52.240;6.002;2023-07-16T15:28:59;24.90;99.90
25951;DHT22;13748;52.240;6.002;2023-07-16T15:31:26;24.90;99.90
25951;DHT22;13748;52.240;6.002;2023-07-16T15:33:56;24.90;99.90
25951;DHT22;13748;52.240;6.002;2023-07-16T15:36:25;25.00;99.90
25951;DHT22;13748;52.240;6.002;2023-07-16T15:38:52;25.10;99.90
25951;DHT22;13748;52.240;6.002;2023-07-16T15:41:20;25.10;99.90
25951;DHT22;13748;52.240;6.002;2023-07-16T15:43:50;25.00;99.90
25951;DHT22;13748;52.240;6.002;2023-07-16T15:46:17;24.90;99.90
25951;DHT22;13748;52.240;6.002;2023-07-16T15:48:45;24.80;99.90
25951;DHT22;13748;52.240;6.002;2023-07-16T15:51:12;24.90;99.90